sensor_id;sensor_type;location;lat;lon;timestamp;temperature;humidity
46217;DHT22;47258;59.424;13.482;2022-12-29T00:01:33;-0.80;99.90
46217;DHT22;47258;59.424;13.482;2022-12-29T00:04:00;-0.80;99.90
46217;DHT22;47258;59.424;13.482;2022-12-29T00:06:27;-0.80;99.90
46217;DHT22;47258;59.424;13.482;2022-12-29T00:08:56;-0.80;99.90
46217;DHT22;47258;59.424;13.482;2022-12-29T00:11:25;-0.70;99.90
46217;DHT22;47258;59.424;13.482;2022-12-29T00:13:53;-0.70;99.90
46217;DHT22;47258;59.424;13.482;2022-12-29T00:16:52;-0.60;99.90
46217;DHT22;47258;59.424;13.482;2022-12-29T00:19:19;-0.60;99.90
46217;DHT22;47258;59.424;13.482;2022-12-29T00:22:04;-0.60;99.90
46217;DHT22;47258;59.424;13.482;2022-12-29T00:24:49;-0.60;99.90
46217;DHT22;47258;59.424;13.482;2022-12-29T00:27:34;-0.60;99.90
46217;DHT22;47258;59.424;13.482;2022-12-29T00:30:20;-0.60;99.90
46217;DHT22;47258;59.424;13.482;2022-12-29T00:33:09;-0.60;99.90
46217;DHT22;47258;59.424;13.482;2022-12-29T00:35:56;-0.50;99.90
46217;DHT22;47258;59.424;13.482;2022-12-29T00:38:23;-0.50;99.90
46217;DHT22;47258;59.424;13.482;2022-12-29T00:41:08;-0.60;99.90
46217;DHT22;47258;59.424;13.482;2022-12-29T00:43:53;-0.60;99.90
46217;DHT22;47258;59.424;13.482;2022-12-29T00:46:32;-0.60;99.90
46217;DHT22;47258;59.424;13.482;2022-12-29T00:49:00;-0.60;99.90
46217;DHT22;47258;59.424;13.482;2022-12-29T00:51:45;-0.60;99.90
46217;DHT22;47258;59.424;13.482;2022-12-29T00:54:12;-0.60;99.90
46217;DHT22;47258;59.424;13.482;2022-12-29T00:56:41;-0.60;99.90
46217;DHT22;47258;59.424;13.482;2022-12-29T00:59:10;-0.60;99.90
46217;DHT22;47258;59.424;13.482;2022-12-29T01:01:38;-0.50;99.90
46217;DHT22;47258;59.424;13.482;2022-12-29T01:04:05;-0.60;99.90
46217;DHT22;47258;59.424;13.482;2022-12-29T01:06:33;-0.60;99.90
46217;DHT22;47258;59.424;13.482;2022-12-29T01:09:02;-0.50;99.90
46217;DHT22;47258;59.424;13.482;2022-12-29T01:11:48;-0.60;99.90
46217;DHT22;47258;59.424;13.482;2022-12-29T01:14:16;-0.50;99.90
46217;DHT22;47258;59.424;13.482;2022-12-29T01:16:43;-0.50;99.90
46217;DHT22;47258;59.424;13.482;2022-12-29T01:19:11;-0.60;99.90
46217;DHT22;47258;59.424;13.482;2022-12-29T01:21:38;-0.50;99.90
46217;DHT22;47258;59.424;13.482;2022-12-29T01:24:05;-0.60;99.90
46217;DHT22;47258;59.424;13.482;2022-12-29T01:26:32;-0.60;99.90
46217;DHT22;47258;59.424;13.482;2022-12-29T01:29:01;-0.60;99.90
46217;DHT22;47258;59.424;13.482;2022-12-29T01:31:28;-0.60;99.90
46217;DHT22;47258;59.424;13.482;2022-12-29T01:33:55;-0.60;99.90
46217;DHT22;47258;59.424;13.482;2022-12-29T01:36:24;-0.60;99.90
46217;DHT22;47258;59.424;13.482;2022-12-29T01:38:51;-0.60;99.90
46217;DHT22;47258;59.424;13.482;2022-12-29T01:41:18;-0.50;99.90
46217;DHT22;47258;59.424;13.482;2022-12-29T01:43:47;-0.60;99.90
46217;DHT22;47258;59.424;13.482;2022-12-29T01:46:21;-0.60;99.90
46217;DHT22;47258;59.424;13.482;2022-12-29T01:48:53;-0.60;99.90
46217;DHT22;47258;59.424;13.482;2022-12-29T01:51:23;-0.60;99.90
46217;DHT22;47258;59.424;13.482;2022-12-29T01:53:52;-0.50;99.90
46217;DHT22;47258;59.424;13.482;2022-12-29T01:56:21;-0.50;99.90
46217;DHT22;47258;59.424;13.482;2022-12-29T01:58:52;-0.50;99.90
46217;DHT22;47258;59.424;13.482;2022-12-29T02:01:23;-0.50;99.90
46217;DHT22;47258;59.424;13.482;2022-12-29T02:03:51;-0.50;99.90
46217;DHT22;47258;59.424;13.482;2022-12-29T02:06:21;-0.50;99.90
46217;DHT22;47258;59.424;13.482;2022-12-29T02:08:50;-0.50;99.90
46217;DHT22;47258;59.424;13.482;2022-12-29T02:11:19;-0.40;99.90
46217;DHT22;47258;59.424;13.482;2022-12-29T02:13:48;-0.40;99.90
46217;DHT22;47258;59.424;13.482;2022-12-29T02:16:35;-0.40;99.90
46217;DHT22;47258;59.424;13.482;2022-12-29T02:19:24;-0.40;99.90
46217;DHT22;47258;59.424;13.482;2022-12-29T02:22:12;-0.30;99.90
46217;DHT22;47258;59.424;13.482;2022-12-29T02:27:55;-0.30;99.90
46217;DHT22;47258;59.424;13.482;2022-12-29T02:30:44;-0.30;99.90
46217;DHT22;47258;59.424;13.482;2022-12-29T02:33:23;-0.30;99.90
46217;DHT22;47258;59.424;13.482;2022-12-29T02:35:58;-0.30;99.90
46217;DHT22;47258;59.424;13.482;2022-12-29T02:38:37;-0.30;99.90
46217;DHT22;47258;59.424;13.482;2022-12-29T02:41:12;-0.30;99.90
46217;DHT22;47258;59.424;13.482;2022-12-29T02:43:47;-0.20;99.90
46217;DHT22;47258;59.424;13.482;2022-12-29T02:46:20;-0.20;99.90
46217;DHT22;47258;59.424;13.482;2022-12-29T02:48:59;-0.20;99.90
46217;DHT22;47258;59.424;13.482;2022-12-29T02:51:32;-0.20;99.90
46217;DHT22;47258;59.424;13.482;2022-12-29T02:54:01;-0.20;99.90
46217;DHT22;47258;59.424;13.482;2022-12-29T02:56:45;-0.20;99.90
46217;DHT22;47258;59.424;13.482;2022-12-29T02:59:12;-0.10;99.90
46217;DHT22;47258;59.424;13.482;2022-12-29T03:01:53;-0.10;99.90
46217;DHT22;47258;59.424;13.482;2022-12-29T03:04:51;0.00;99.90
46217;DHT22;47258;59.424;13.482;2022-12-29T03:07:29;0.00;99.90
46217;DHT22;47258;59.424;13.482;2022-12-29T03:10:04;0.00;99.90
46217;DHT22;47258;59.424;13.482;2022-12-29T03:12:38;0.00;99.90
46217;DHT22;47258;59.424;13.482;2022-12-29T03:15:31;0.10;99.90
46217;DHT22;47258;59.424;13.482;2022-12-29T03:18:21;0.10;99.90
46217;DHT22;47258;59.424;13.482;2022-12-29T03:20:53;0.10;99.90
46217;DHT22;47258;59.424;13.482;2022-12-29T03:23:22;0.10;99.90
46217;DHT22;47258;59.424;13.482;2022-12-29T03:25:52;0.20;99.90
46217;DHT22;47258;59.424;13.482;2022-12-29T03:28:23;0.20;99.90
46217;DHT22;47258;59.424;13.482;2022-12-29T03:30:50;0.30;99.90
46217;DHT22;47258;59.424;13.482;2022-12-29T03:33:21;0.30;99.90
46217;DHT22;47258;59.424;13.482;2022-12-29T03:35:51;0.30;99.90
46217;DHT22;47258;59.424;13.482;2022-12-29T03:38:19;0.30;99.90
46217;DHT22;47258;59.424;13.482;2022-12-29T03:40:50;0.40;99.90
46217;DHT22;47258;59.424;13.482;2022-12-29T03:43:19;0.40;99.90
46217;DHT22;47258;59.424;13.482;2022-12-29T03:45:46;0.40;99.90
46217;DHT22;47258;59.424;13.482;2022-12-29T03:48:13;0.40;99.90
46217;DHT22;47258;59.424;13.482;2022-12-29T03:50:42;0.50;99.90
46217;DHT22;47258;59.424;13.482;2022-12-29T03:53:09;0.50;99.90
46217;DHT22;47258;59.424;13.482;2022-12-29T03:55:36;0.50;99.90
46217;DHT22;47258;59.424;13.482;2022-12-29T03:58:03;0.50;99.90
46217;DHT22;47258;59.424;13.482;2022-12-29T04:00:30;0.60;99.90
46217;DHT22;47258;59.424;13.482;2022-12-29T04:02:57;0.60;99.90
46217;DHT22;47258;59.424;13.482;2022-12-29T04:05:24;0.60;99.90
46217;DHT22;47258;59.424;13.482;2022-12-29T04:07:52;0.60;99.90
46217;DHT22;47258;59.424;13.482;2022-12-29T04:10:20;0.60;99.90
46217;DHT22;47258;59.424;13.482;2022-12-29T04:12:47;0.70;99.90
46217;DHT22;47258;59.424;13.482;2022-12-29T04:15:14;0.60;99.90
46217;DHT22;47258;59.424;13.482;2022-12-29T04:17:41;0.70;99.90
46217;DHT22;47258;59.424;13.482;2022-12-29T04:20:09;0.70;99.90
46217;DHT22;47258;59.424;13.482;2022-12-29T04:22:59;0.70;99.90
46217;DHT22;47258;59.424;13.482;2022-12-29T04:25:26;0.70;99.90
46217;DHT22;47258;59.424;13.482;2022-12-29T04:27:54;0.70;99.90
46217;DHT22;47258;59.424;13.482;2022-12-29T04:30:21;0.80;99.90
46217;DHT22;47258;59.424;13.482;2022-12-29T04:32:48;0.80;99.90
46217;DHT22;47258;59.424;13.482;2022-12-29T04:35:15;0.80;99.90
46217;DHT22;47258;59.424;13.482;2022-12-29T04:37:42;0.80;99.90
46217;DHT22;47258;59.424;13.482;2022-12-29T04:40:11;0.80;99.90
46217;DHT22;47258;59.424;13.482;2022-12-29T04:42:39;0.90;99.90
46217;DHT22;47258;59.424;13.482;2022-12-29T04:45:07;0.90;99.90
46217;DHT22;47258;59.424;13.482;2022-12-29T04:47:34;0.90;99.90
46217;DHT22;47258;59.424;13.482;2022-12-29T04:50:01;0.90;99.90
46217;DHT22;47258;59.424;13.482;2022-12-29T04:52:28;0.90;99.90
46217;DHT22;47258;59.424;13.482;2022-12-29T04:54:55;1.00;99.90
46217;DHT22;47258;59.424;13.482;2022-12-29T04:57:24;1.00;99.90
46217;DHT22;47258;59.424;13.482;2022-12-29T04:59:51;1.00;99.90
46217;DHT22;47258;59.424;13.482;2022-12-29T05:02:18;1.00;99.90
46217;DHT22;47258;59.424;13.482;2022-12-29T05:04:45;1.10;99.90
46217;DHT22;47258;59.424;13.482;2022-12-29T05:07:12;1.10;99.90
46217;DHT22;47258;59.424;13.482;2022-12-29T05:09:40;1.10;99.90
46217;DHT22;47258;59.424;13.482;2022-12-29T05:12:07;1.10;99.90
46217;DHT22;47258;59.424;13.482;2022-12-29T05:14:36;1.10;99.90
46217;DHT22;47258;59.424;13.482;2022-12-29T05:17:03;1.10;99.90
46217;DHT22;47258;59.424;13.482;2022-12-29T05:19:30;1.10;99.90
46217;DHT22;47258;59.424;13.482;2022-12-29T05:21:57;1.20;99.90
46217;DHT22;47258;59.424;13.482;2022-12-29T05:24:24;1.20;99.90
46217;DHT22;47258;59.424;13.482;2022-12-29T05:26:51;1.20;99.90
46217;DHT22;47258;59.424;13.482;2022-12-29T05:29:18;1.20;99.90
46217;DHT22;47258;59.424;13.482;2022-12-29T05:31:46;1.20;99.90
46217;DHT22;47258;59.424;13.482;2022-12-29T05:34:14;1.30;99.90
46217;DHT22;47258;59.424;13.482;2022-12-29T05:36:41;1.30;99.90
46217;DHT22;47258;59.424;13.482;2022-12-29T05:39:08;1.30;99.90
46217;DHT22;47258;59.424;13.482;2022-12-29T05:41:35;1.30;99.90
46217;DHT22;47258;59.424;13.482;2022-12-29T05:44:02;1.40;99.90
46217;DHT22;47258;59.424;13.482;2022-12-29T05:46:29;1.40;99.90
46217;DHT22;47258;59.424;13.482;2022-12-29T05:48:58;1.40;99.90
46217;DHT22;47258;59.424;13.482;2022-12-29T05:51:25;1.40;99.90
46217;DHT22;47258;59.424;13.482;2022-12-29T05:53:52;1.50;99.90
46217;DHT22;47258;59.424;13.482;2022-12-29T05:56:19;1.50;99.90
46217;DHT22;47258;59.424;13.482;2022-12-29T05:58:46;1.50;99.90
46217;DHT22;47258;59.424;13.482;2022-12-29T06:01:13;1.50;99.90
46217;DHT22;47258;59.424;13.482;2022-12-29T06:03:40;1.50;99.90
46217;DHT22;47258;59.424;13.482;2022-12-29T06:06:09;1.60;99.90
46217;DHT22;47258;59.424;13.482;2022-12-29T06:08:36;1.60;99.90
46217;DHT22;47258;59.424;13.482;2022-12-29T06:11:03;1.60;99.90
46217;DHT22;47258;59.424;13.482;2022-12-29T06:13:30;1.60;99.90
46217;DHT22;47258;59.424;13.482;2022-12-29T06:15:57;1.70;99.90
46217;DHT22;47258;59.424;13.482;2022-12-29T06:18:24;1.70;99.90
46217;DHT22;47258;59.424;13.482;2022-12-29T06:20:51;1.70;99.90
46217;DHT22;47258;59.424;13.482;2022-12-29T06:23:20;1.70;99.90
46217;DHT22;47258;59.424;13.482;2022-12-29T06:25:47;1.80;99.90
46217;DHT22;47258;59.424;13.482;2022-12-29T06:28:15;1.80;99.90
46217;DHT22;47258;59.424;13.482;2022-12-29T06:30:43;1.80;99.90
46217;DHT22;47258;59.424;13.482;2022-12-29T06:33:10;1.90;99.90
46217;DHT22;47258;59.424;13.482;2022-12-29T06:35:38;1.90;99.90
46217;DHT22;47258;59.424;13.482;2022-12-29T06:38:05;1.90;99.90
46217;DHT22;47258;59.424;13.482;2022-12-29T06:40:33;1.90;99.90
46217;DHT22;47258;59.424;13.482;2022-12-29T06:43:01;2.00;99.90
46217;DHT22;47258;59.424;13.482;2022-12-29T06:45:28;2.00;99.90
46217;DHT22;47258;59.424;13.482;2022-12-29T06:47:55;2.10;99.90
46217;DHT22;47258;59.424;13.482;2022-12-29T06:50:22;2.10;99.90
46217;DHT22;47258;59.424;13.482;2022-12-29T06:52:49;2.10;99.90
46217;DHT22;47258;59.424;13.482;2022-12-29T06:55:16;2.10;99.90
46217;DHT22;47258;59.424;13.482;2022-12-29T06:57:44;2.20;99.90
46217;DHT22;47258;59.424;13.482;2022-12-29T07:00:12;2.20;99.90
46217;DHT22;47258;59.424;13.482;2022-12-29T07:02:40;2.30;99.90
46217;DHT22;47258;59.424;13.482;2022-12-29T07:05:07;2.30;99.90
46217;DHT22;47258;59.424;13.482;2022-12-29T07:07:35;2.30;99.90
46217;DHT22;47258;59.424;13.482;2022-12-29T07:10:03;2.30;99.90
46217;DHT22;47258;59.424;13.482;2022-12-29T07:12:30;2.30;99.90
46217;DHT22;47258;59.424;13.482;2022-12-29T07:14:58;2.40;99.90
46217;DHT22;47258;59.424;13.482;2022-12-29T07:17:25;2.40;99.90
46217;DHT22;47258;59.424;13.482;2022-12-29T07:19:52;2.40;99.90
46217;DHT22;47258;59.424;13.482;2022-12-29T07:22:19;2.50;99.90
46217;DHT22;47258;59.424;13.482;2022-12-29T07:24:47;2.50;99.90
46217;DHT22;47258;59.424;13.482;2022-12-29T07:27:14;2.50;99.90
46217;DHT22;47258;59.424;13.482;2022-12-29T07:29:41;2.50;99.90
46217;DHT22;47258;59.424;13.482;2022-12-29T07:32:09;2.60;99.90
46217;DHT22;47258;59.424;13.482;2022-12-29T07:34:36;2.60;99.90
46217;DHT22;47258;59.424;13.482;2022-12-29T07:37:05;2.60;99.90
46217;DHT22;47258;59.424;13.482;2022-12-29T07:39:32;2.70;99.90
46217;DHT22;47258;59.424;13.482;2022-12-29T07:41:59;2.70;99.90
46217;DHT22;47258;59.424;13.482;2022-12-29T07:44:26;2.70;99.90
46217;DHT22;47258;59.424;13.482;2022-12-29T07:46:53;2.70;99.90
46217;DHT22;47258;59.424;13.482;2022-12-29T07:49:21;2.80;99.90
46217;DHT22;47258;59.424;13.482;2022-12-29T07:51:49;2.80;99.90
46217;DHT22;47258;59.424;13.482;2022-12-29T07:54:16;2.80;99.90
46217;DHT22;47258;59.424;13.482;2022-12-29T07:56:43;2.80;99.90
46217;DHT22;47258;59.424;13.482;2022-12-29T07:59:11;2.80;99.90
46217;DHT22;47258;59.424;13.482;2022-12-29T08:01:39;2.80;99.90
46217;DHT22;47258;59.424;13.482;2022-12-29T08:04:06;2.80;99.90
46217;DHT22;47258;59.424;13.482;2022-12-29T08:06:34;2.80;99.90
46217;DHT22;47258;59.424;13.482;2022-12-29T08:09:03;2.90;99.90
46217;DHT22;47258;59.424;13.482;2022-12-29T08:11:30;2.90;99.90
46217;DHT22;47258;59.424;13.482;2022-12-29T08:13:57;2.90;99.90
46217;DHT22;47258;59.424;13.482;2022-12-29T08:16:24;2.90;99.90
46217;DHT22;47258;59.424;13.482;2022-12-29T08:18:51;2.90;99.90
46217;DHT22;47258;59.424;13.482;2022-12-29T08:21:18;3.00;99.90
46217;DHT22;47258;59.424;13.482;2022-12-29T08:23:47;3.00;99.90
46217;DHT22;47258;59.424;13.482;2022-12-29T08:26:14;3.00;99.90
46217;DHT22;47258;59.424;13.482;2022-12-29T08:28:41;3.00;99.90
46217;DHT22;47258;59.424;13.482;2022-12-29T08:31:08;3.00;99.90
46217;DHT22;47258;59.424;13.482;2022-12-29T08:33:36;3.00;99.90
46217;DHT22;47258;59.424;13.482;2022-12-29T08:36:04;3.00;99.90
46217;DHT22;47258;59.424;13.482;2022-12-29T08:38:32;3.00;99.90
46217;DHT22;47258;59.424;13.482;2022-12-29T08:41:01;3.00;99.90
46217;DHT22;47258;59.424;13.482;2022-12-29T08:43:28;3.10;99.90
46217;DHT22;47258;59.424;13.482;2022-12-29T08:45:57;3.10;99.90
46217;DHT22;47258;59.424;13.482;2022-12-29T08:48:24;3.10;99.90
46217;DHT22;47258;59.424;13.482;2022-12-29T08:50:51;3.10;99.90
46217;DHT22;47258;59.424;13.482;2022-12-29T08:53:19;3.10;99.90
46217;DHT22;47258;59.424;13.482;2022-12-29T08:55:47;3.20;99.90
46217;DHT22;47258;59.424;13.482;2022-12-29T08:58:16;3.20;99.90
46217;DHT22;47258;59.424;13.482;2022-12-29T09:00:43;3.20;99.90
46217;DHT22;47258;59.424;13.482;2022-12-29T09:03:10;3.20;99.90
46217;DHT22;47258;59.424;13.482;2022-12-29T09:05:37;3.30;99.90
46217;DHT22;47258;59.424;13.482;2022-12-29T09:08:04;3.30;99.90
46217;DHT22;47258;59.424;13.482;2022-12-29T09:10:32;3.40;99.90
46217;DHT22;47258;59.424;13.482;2022-12-29T09:12:59;3.40;99.90
46217;DHT22;47258;59.424;13.482;2022-12-29T09:15:27;3.40;99.90
46217;DHT22;47258;59.424;13.482;2022-12-29T09:17:55;3.40;99.90
46217;DHT22;47258;59.424;13.482;2022-12-29T09:20:22;3.40;99.90
46217;DHT22;47258;59.424;13.482;2022-12-29T09:22:49;3.50;99.90
46217;DHT22;47258;59.424;13.482;2022-12-29T09:25:16;3.50;99.90
46217;DHT22;47258;59.424;13.482;2022-12-29T09:27:43;3.50;99.90
46217;DHT22;47258;59.424;13.482;2022-12-29T09:30:12;3.60;99.90
46217;DHT22;47258;59.424;13.482;2022-12-29T09:32:41;3.60;99.90
46217;DHT22;47258;59.424;13.482;2022-12-29T09:35:08;3.60;99.90
46217;DHT22;47258;59.424;13.482;2022-12-29T09:37:36;3.60;99.90
46217;DHT22;47258;59.424;13.482;2022-12-29T09:40:03;3.60;99.90
46217;DHT22;47258;59.424;13.482;2022-12-29T09:42:35;3.60;99.90
46217;DHT22;47258;59.424;13.482;2022-12-29T09:45:11;3.70;99.90
46217;DHT22;47258;59.424;13.482;2022-12-29T09:47:40;3.70;99.90
46217;DHT22;47258;59.424;13.482;2022-12-29T09:50:15;3.70;99.90
46217;DHT22;47258;59.424;13.482;2022-12-29T09:52:48;3.80;99.90
46217;DHT22;47258;59.424;13.482;2022-12-29T09:55:20;3.80;99.90
46217;DHT22;47258;59.424;13.482;2022-12-29T09:57:52;3.90;99.90
46217;DHT22;47258;59.424;13.482;2022-12-29T10:00:22;3.90;99.90
46217;DHT22;47258;59.424;13.482;2022-12-29T10:02:56;3.90;99.90
46217;DHT22;47258;59.424;13.482;2022-12-29T10:05:33;3.90;99.90
46217;DHT22;47258;59.424;13.482;2022-12-29T10:08:22;3.90;99.90
46217;DHT22;47258;59.424;13.482;2022-12-29T10:10:56;3.90;99.90
46217;DHT22;47258;59.424;13.482;2022-12-29T10:13:42;4.00;99.90
46217;DHT22;47258;59.424;13.482;2022-12-29T10:16:14;4.00;99.90
46217;DHT22;47258;59.424;13.482;2022-12-29T10:18:59;4.00;99.90
46217;DHT22;47258;59.424;13.482;2022-12-29T10:21:37;4.00;99.90
46217;DHT22;47258;59.424;13.482;2022-12-29T10:24:11;4.00;99.90
46217;DHT22;47258;59.424;13.482;2022-12-29T10:26:40;4.00;99.90
46217;DHT22;47258;59.424;13.482;2022-12-29T10:29:15;4.00;99.90
46217;DHT22;47258;59.424;13.482;2022-12-29T10:31:44;4.00;99.90
46217;DHT22;47258;59.424;13.482;2022-12-29T10:34:20;4.00;99.90
46217;DHT22;47258;59.424;13.482;2022-12-29T10:36:49;4.10;99.90
46217;DHT22;47258;59.424;13.482;2022-12-29T10:39:23;4.10;99.90
46217;DHT22;47258;59.424;13.482;2022-12-29T10:41:55;4.10;99.90
46217;DHT22;47258;59.424;13.482;2022-12-29T10:44:27;4.20;99.90
46217;DHT22;47258;59.424;13.482;2022-12-29T10:46:59;4.20;99.90
46217;DHT22;47258;59.424;13.482;2022-12-29T10:49:30;4.20;99.90
46217;DHT22;47258;59.424;13.482;2022-12-29T10:52:00;4.30;99.90
46217;DHT22;47258;59.424;13.482;2022-12-29T10:54:32;4.40;99.90
46217;DHT22;47258;59.424;13.482;2022-12-29T10:57:02;4.40;99.90
46217;DHT22;47258;59.424;13.482;2022-12-29T10:59:32;4.50;99.90
46217;DHT22;47258;59.424;13.482;2022-12-29T11:02:22;4.50;99.90
46217;DHT22;47258;59.424;13.482;2022-12-29T11:04:59;4.60;99.90
46217;DHT22;47258;59.424;13.482;2022-12-29T11:07:29;4.70;99.90
46217;DHT22;47258;59.424;13.482;2022-12-29T11:10:16;4.70;99.90
46217;DHT22;47258;59.424;13.482;2022-12-29T11:12:55;4.70;99.90
46217;DHT22;47258;59.424;13.482;2022-12-29T11:15:22;4.80;99.90
46217;DHT22;47258;59.424;13.482;2022-12-29T11:17:52;4.90;99.90
46217;DHT22;47258;59.424;13.482;2022-12-29T11:20:31;4.90;99.90
46217;DHT22;47258;59.424;13.482;2022-12-29T11:22:59;4.90;99.90
46217;DHT22;47258;59.424;13.482;2022-12-29T11:25:26;4.90;99.90
46217;DHT22;47258;59.424;13.482;2022-12-29T11:28:00;5.00;99.90
46217;DHT22;47258;59.424;13.482;2022-12-29T11:30:29;5.00;99.90
46217;DHT22;47258;59.424;13.482;2022-12-29T11:32:58;5.00;99.90
46217;DHT22;47258;59.424;13.482;2022-12-29T11:35:35;5.10;99.90
46217;DHT22;47258;59.424;13.482;2022-12-29T11:38:03;5.10;99.90
46217;DHT22;47258;59.424;13.482;2022-12-29T11:40:38;5.20;99.90
46217;DHT22;47258;59.424;13.482;2022-12-29T11:43:06;5.20;99.90
46217;DHT22;47258;59.424;13.482;2022-12-29T11:45:34;5.20;99.90
46217;DHT22;47258;59.424;13.482;2022-12-29T11:48:08;5.20;99.90
46217;DHT22;47258;59.424;13.482;2022-12-29T11:50:39;5.20;99.90
46217;DHT22;47258;59.424;13.482;2022-12-29T11:53:15;5.20;99.90
46217;DHT22;47258;59.424;13.482;2022-12-29T11:55:51;5.20;99.90
46217;DHT22;47258;59.424;13.482;2022-12-29T11:58:19;5.30;99.90
46217;DHT22;47258;59.424;13.482;2022-12-29T12:00:47;5.30;99.90
46217;DHT22;47258;59.424;13.482;2022-12-29T12:03:17;5.40;99.90
46217;DHT22;47258;59.424;13.482;2022-12-29T12:05:49;5.40;99.90
46217;DHT22;47258;59.424;13.482;2022-12-29T12:08:23;5.40;99.90
46217;DHT22;47258;59.424;13.482;2022-12-29T12:10:58;5.50;99.90
46217;DHT22;47258;59.424;13.482;2022-12-29T12:13:31;5.50;99.90
46217;DHT22;47258;59.424;13.482;2022-12-29T12:16:05;5.50;99.90
46217;DHT22;47258;59.424;13.482;2022-12-29T12:18:39;5.60;99.90
46217;DHT22;47258;59.424;13.482;2022-12-29T12:21:15;5.60;99.90
46217;DHT22;47258;59.424;13.482;2022-12-29T12:26:35;5.60;99.90
46217;DHT22;47258;59.424;13.482;2022-12-29T12:29:10;5.60;99.90
46217;DHT22;47258;59.424;13.482;2022-12-29T12:31:45;5.60;99.90
46217;DHT22;47258;59.424;13.482;2022-12-29T12:34:18;5.60;99.90
46217;DHT22;47258;59.424;13.482;2022-12-29T12:37:10;5.70;99.90
46217;DHT22;47258;59.424;13.482;2022-12-29T12:39:48;5.70;99.90
46217;DHT22;47258;59.424;13.482;2022-12-29T12:42:27;5.70;99.90
46217;DHT22;47258;59.424;13.482;2022-12-29T12:45:26;5.70;99.90
46217;DHT22;47258;59.424;13.482;2022-12-29T12:48:07;5.80;99.90
46217;DHT22;47258;59.424;13.482;2022-12-29T12:50:46;5.70;99.90
46217;DHT22;47258;59.424;13.482;2022-12-29T12:53:41;5.70;99.90
46217;DHT22;47258;59.424;13.482;2022-12-29T12:56:39;5.80;99.90
46217;DHT22;47258;59.424;13.482;2022-12-29T12:59:20;5.80;99.90
46217;DHT22;47258;59.424;13.482;2022-12-29T13:01:59;5.80;99.90
46217;DHT22;47258;59.424;13.482;2022-12-29T13:04:48;5.80;99.90
46217;DHT22;47258;59.424;13.482;2022-12-29T13:07:27;5.90;99.90
46217;DHT22;47258;59.424;13.482;2022-12-29T13:10:16;5.90;99.90
46217;DHT22;47258;59.424;13.482;2022-12-29T13:12:49;5.90;99.90
46217;DHT22;47258;59.424;13.482;2022-12-29T13:15:32;5.90;99.90
46217;DHT22;47258;59.424;13.482;2022-12-29T13:18:07;5.90;99.90
46217;DHT22;47258;59.424;13.482;2022-12-29T13:20:43;5.90;99.90
46217;DHT22;47258;59.424;13.482;2022-12-29T13:23:17;5.90;99.90
46217;DHT22;47258;59.424;13.482;2022-12-29T13:25:50;6.00;99.90
46217;DHT22;47258;59.424;13.482;2022-12-29T13:28:24;6.00;99.90
46217;DHT22;47258;59.424;13.482;2022-12-29T13:30:57;6.00;99.90
46217;DHT22;47258;59.424;13.482;2022-12-29T13:33:31;6.00;99.90
46217;DHT22;47258;59.424;13.482;2022-12-29T13:36:05;6.00;99.90
46217;DHT22;47258;59.424;13.482;2022-12-29T13:38:37;6.00;99.90
46217;DHT22;47258;59.424;13.482;2022-12-29T13:41:09;6.10;99.90
46217;DHT22;47258;59.424;13.482;2022-12-29T13:43:41;6.10;99.90
46217;DHT22;47258;59.424;13.482;2022-12-29T13:46:12;6.10;99.90
46217;DHT22;47258;59.424;13.482;2022-12-29T13:48:44;6.10;99.90
46217;DHT22;47258;59.424;13.482;2022-12-29T13:51:13;6.10;99.90
46217;DHT22;47258;59.424;13.482;2022-12-29T13:53:56;6.10;99.90
46217;DHT22;47258;59.424;13.482;2022-12-29T13:56:33;6.10;99.90
46217;DHT22;47258;59.424;13.482;2022-12-29T13:59:08;6.10;99.90
46217;DHT22;47258;59.424;13.482;2022-12-29T14:01:43;6.10;99.90
46217;DHT22;47258;59.424;13.482;2022-12-29T14:04:14;6.10;99.90
46217;DHT22;47258;59.424;13.482;2022-12-29T14:06:42;6.10;99.90
46217;DHT22;47258;59.424;13.482;2022-12-29T14:09:30;6.10;99.90
46217;DHT22;47258;59.424;13.482;2022-12-29T14:11:59;6.10;99.90
46217;DHT22;47258;59.424;13.482;2022-12-29T14:14:29;6.10;99.90
46217;DHT22;47258;59.424;13.482;2022-12-29T14:17:08;6.20;99.90
46217;DHT22;47258;59.424;13.482;2022-12-29T14:19:37;6.20;99.90
46217;DHT22;47258;59.424;13.482;2022-12-29T14:22:07;6.10;99.90
46217;DHT22;47258;59.424;13.482;2022-12-29T14:24:44;6.10;99.90
46217;DHT22;47258;59.424;13.482;2022-12-29T14:27:44;6.10;99.90
46217;DHT22;47258;59.424;13.482;2022-12-29T14:30:46;6.10;99.90
46217;DHT22;47258;59.424;13.482;2022-12-29T14:33:14;6.10;99.90
46217;DHT22;47258;59.424;13.482;2022-12-29T14:35:44;6.10;99.90
46217;DHT22;47258;59.424;13.482;2022-12-29T14:38:17;6.10;99.90
46217;DHT22;47258;59.424;13.482;2022-12-29T14:40:46;6.10;99.90
46217;DHT22;47258;59.424;13.482;2022-12-29T14:43:21;6.10;99.90
46217;DHT22;47258;59.424;13.482;2022-12-29T14:46:00;6.10;99.90
46217;DHT22;47258;59.424;13.482;2022-12-29T14:48:37;6.10;99.90
46217;DHT22;47258;59.424;13.482;2022-12-29T14:51:28;6.10;99.90
46217;DHT22;47258;59.424;13.482;2022-12-29T14:53:56;6.10;99.90
46217;DHT22;47258;59.424;13.482;2022-12-29T14:56:26;6.20;99.90
46217;DHT22;47258;59.424;13.482;2022-12-29T14:58:57;6.20;99.90
46217;DHT22;47258;59.424;13.482;2022-12-29T15:01:33;6.20;99.90
46217;DHT22;47258;59.424;13.482;2022-12-29T15:04:12;6.20;99.90
46217;DHT22;47258;59.424;13.482;2022-12-29T15:06:40;6.20;99.90
46217;DHT22;47258;59.424;13.482;2022-12-29T15:09:17;6.10;99.90
46217;DHT22;47258;59.424;13.482;2022-12-29T15:11:50;6.10;99.90
46217;DHT22;47258;59.424;13.482;2022-12-29T15:14:39;6.10;99.90
46217;DHT22;47258;59.424;13.482;2022-12-29T15:17:10;6.10;99.90
46217;DHT22;47258;59.424;13.482;2022-12-29T15:19:38;6.10;99.90
46217;DHT22;47258;59.424;13.482;2022-12-29T15:22:05;6.10;99.90
46217;DHT22;47258;59.424;13.482;2022-12-29T15:24:33;6.10;99.90
46217;DHT22;47258;59.424;13.482;2022-12-29T15:27:03;6.20;99.90
46217;DHT22;47258;59.424;13.482;2022-12-29T15:29:34;6.20;99.90
46217;DHT22;47258;59.424;13.482;2022-12-29T15:32:18;6.20;99.90
46217;DHT22;47258;59.424;13.482;2022-12-29T15:34:47;6.20;99.90
46217;DHT22;47258;59.424;13.482;2022-12-29T15:37:18;6.20;99.90
46217;DHT22;47258;59.424;13.482;2022-12-29T15:39:45;6.10;99.90
46217;DHT22;47258;59.424;13.482;2022-12-29T15:45:05;6.10;99.90
46217;DHT22;47258;59.424;13.482;2022-12-29T15:47:34;6.10;99.90
46217;DHT22;47258;59.424;13.482;2022-12-29T15:50:04;6.10;99.90
46217;DHT22;47258;59.424;13.482;2022-12-29T15:52:33;6.10;99.90
46217;DHT22;47258;59.424;13.482;2022-12-29T15:55:01;6.10;99.90
46217;DHT22;47258;59.424;13.482;2022-12-29T15:57:31;6.20;99.90
46217;DHT22;47258;59.424;13.482;2022-12-29T16:00:04;6.20;99.90
46217;DHT22;47258;59.424;13.482;2022-12-29T16:02:50;6.20;99.90
46217;DHT22;47258;59.424;13.482;2022-12-29T16:05:17;6.20;99.90